Time,TemperatureF,DewpointF,PressureIn,WindDirection,WindDirectionDegrees,WindSpeedMPH,WindSpeedGustMPH,Humidity,HourlyPrecipIn,Conditions,Clouds,dailyrainin,SoftwareType,DateUTC
2013-06-22 00:06:00,55.1,52.0,30.25,SSE,148,0.0,0.0,88,0.00,,,0.00,weatherlink.com 1.10,2013-06-22 04:06:00,
2013-06-22 00:21:00,54.9,52.0,30.25,SSE,148,0.0,0.0,88,0.00,,,0.00,weatherlink.com 1.10,2013-06-22 04:21:00,
2013-06-22 00:36:00,54.6,51.0,30.26,SSE,148,0.0,0.0,88,0.00,,,0.00,weatherlink.com 1.10,2013-06-22 04:36:00,
2013-06-22 00:51:00,54.1,51.0,30.25,SSE,148,0.0,0.0,89,0.00,,,0.00,weatherlink.com 1.10,2013-06-22 04:51:00,
2013-06-22 01:06:00,53.5,50.0,30.25,SSE,148,0.0,0.0,89,0.00,,,0.00,weatherlink.com 1.10,2013-06-22 05:06:00,
2013-06-22 01:21:00,53.4,50.0,30.24,SSE,148,0.0,0.0,89,0.00,,,0.00,weatherlink.com 1.10,2013-06-22 05:21:00,
2013-06-22 01:36:00,52.6,50.0,30.25,SSE,148,0.0,0.0,89,0.00,,,0.00,weatherlink.com 1.10,2013-06-22 05:36:00,
2013-06-22 01:51:00,52.4,49.0,30.25,SSE,148,0.0,0.0,89,0.00,,,0.00,weatherlink.com 1.10,2013-06-22 05:51:00,
2013-06-22 02:06:00,52.2,49.0,30.25,SSE,148,0.0,0.0,89,0.00,,,0.00,weatherlink.com 1.10,2013-06-22 06:06:00,
2013-06-22 02:21:00,51.9,49.0,30.25,SSE,148,0.0,0.0,89,0.00,,,0.00,weatherlink.com 1.10,2013-06-22 06:21:00,
2013-06-22 02:36:00,51.5,48.0,30.24,SSE,148,0.0,0.0,89,0.00,,,0.00,weatherlink.com 1.10,2013-06-22 06:36:00,
2013-06-22 02:51:00,51.2,48.0,30.24,SSE,148,0.0,0.0,89,0.00,,,0.00,weatherlink.com 1.10,2013-06-22 06:51:00,
2013-06-22 03:06:00,51.8,49.0,30.24,SSE,148,0.0,0.0,90,0.00,,,0.00,weatherlink.com 1.10,2013-06-22 07:06:00,
2013-06-22 03:21:00,51.9,49.0,30.24,SSE,148,0.0,0.0,89,0.00,,,0.00,weatherlink.com 1.10,2013-06-22 07:21:00,
2013-06-22 03:36:00,52.0,49.0,30.24,SSE,148,0.0,0.0,90,0.00,,,0.00,weatherlink.com 1.10,2013-06-22 07:36:00,
2013-06-22 03:51:00,51.8,49.0,30.24,SSE,148,0.0,0.0,89,0.00,,,0.00,weatherlink.com 1.10,2013-06-22 07:51:00,
2013-06-22 04:06:00,51.8,49.0,30.23,SSE,148,0.0,0.0,90,0.00,,,0.00,weatherlink.com 1.10,2013-06-22 08:06:00,
2013-06-22 04:21:00,51.7,49.0,30.24,SSE,148,0.0,0.0,90,0.00,,,0.00,weatherlink.com 1.10,2013-06-22 08:21:00,
2013-06-22 04:36:00,51.5,49.0,30.25,SSE,148,0.0,0.0,90,0.00,,,0.00,weatherlink.com 1.10,2013-06-22 08:36:00,
2013-06-22 04:51:00,50.8,48.0,30.25,SSE,148,0.0,0.0,89,0.00,,,0.00,weatherlink.com 1.10,2013-06-22 08:51:00,
2013-06-22 05:06:00,52.1,50.0,30.25,SSE,148,0.0,0.0,92,0.00,,,0.00,weatherlink.com 1.10,2013-06-22 09:06:00,
2013-06-22 05:21:00,51.5,49.0,30.25,SSE,148,0.0,0.0,92,0.00,,,0.00,weatherlink.com 1.10,2013-06-22 09:21:00,
2013-06-22 05:36:00,51.2,48.0,30.25,SSE,148,0.0,0.0,90,0.00,,,0.00,weatherlink.com 1.10,2013-06-22 09:36:00,
2013-06-22 05:51:00,51.5,49.0,30.24,SSE,148,0.0,0.0,91,0.00,,,0.00,weatherlink.com 1.10,2013-06-22 09:51:00,
2013-06-22 06:06:00,51.5,49.0,30.25,SSE,148,0.0,0.0,92,0.00,,,0.00,weatherlink.com 1.10,2013-06-22 10:06:00,
2013-06-22 06:21:00,52.2,50.0,30.25,SSE,148,0.0,0.0,92,0.00,,,0.00,weatherlink.com 1.10,2013-06-22 10:21:00,
2013-06-22 06:36:00,53.7,52.0,30.25,SSE,148,0.0,0.0,92,0.00,,,0.00,weatherlink.com 1.10,2013-06-22 10:36:00,
2013-06-22 06:51:00,54.9,53.0,30.25,SSE,148,0.0,0.0,92,0.00,,,0.00,weatherlink.com 1.10,2013-06-22 10:51:00,
2013-06-22 07:06:00,56.6,54.0,30.25,SSE,148,0.0,0.0,92,0.00,,,0.00,weatherlink.com 1.10,2013-06-22 11:06:00,
2013-06-22 07:21:00,58.1,56.0,30.25,SE,146,0.0,0.0,92,0.00,,,0.00,weatherlink.com 1.10,2013-06-22 11:21:00,
2013-06-22 07:36:00,59.1,56.0,30.24,South,174,1.0,2.0,90,0.00,,,0.00,weatherlink.com 1.10,2013-06-22 11:36:00,
2013-06-22 07:51:00,60.8,58.0,30.24,SW,219,2.0,3.0,89,0.00,,,0.00,weatherlink.com 1.10,2013-06-22 11:51:00,
2013-06-22 08:06:00,62.6,59.0,30.25,SSW,192,1.0,3.0,89,0.00,,,0.00,weatherlink.com 1.10,2013-06-22 12:06:00,
2013-06-22 08:21:00,65.4,62.0,30.24,SE,131,2.0,5.0,89,0.00,,,0.00,weatherlink.com 1.10,2013-06-22 12:21:00,
2013-06-22 08:37:00,67.6,64.0,30.24,SSE,157,2.0,5.0,87,0.00,,,0.00,weatherlink.com 1.10,2013-06-22 12:37:00,
2013-06-22 08:52:00,69.7,64.0,30.24,SE,139,2.0,3.0,83,0.00,,,0.00,weatherlink.com 1.10,2013-06-22 12:52:00,
2013-06-22 09:07:00,71.2,65.0,30.24,SE,127,2.0,4.0,80,0.00,,,0.00,weatherlink.com 1.10,2013-06-22 13:07:00,
2013-06-22 09:22:00,71.9,62.0,30.24,SW,235,0.0,5.0,72,0.00,,,0.00,weatherlink.com 1.10,2013-06-22 13:22:00,
2013-06-22 09:37:00,74.5,62.0,30.24,NW,325,0.0,2.0,65,0.00,,,0.00,weatherlink.com 1.10,2013-06-22 13:37:00,
2013-06-22 09:52:00,74.1,62.0,30.24,NW,312,2.0,4.0,65,0.00,,,0.00,weatherlink.com 1.10,2013-06-22 13:52:00,
2013-06-22 10:07:00,75.3,63.0,30.25,North,7,4.0,7.0,65,0.00,,,0.00,weatherlink.com 1.10,2013-06-22 14:07:00,
2013-06-22 10:22:00,75.4,65.0,30.24,East,85,0.0,6.0,70,0.00,,,0.00,weatherlink.com 1.10,2013-06-22 14:22:00,
2013-06-22 10:37:00,76.6,63.0,30.24,WSW,247,1.0,4.0,64,0.00,,,0.00,weatherlink.com 1.10,2013-06-22 14:37:00,
2013-06-22 10:52:00,77.1,63.0,30.25,NW,319,0.0,5.0,62,0.00,,,0.00,weatherlink.com 1.10,2013-06-22 14:52:00,
2013-06-22 11:07:00,78.1,63.0,30.24,North,359,4.0,7.0,61,0.00,,,0.00,weatherlink.com 1.10,2013-06-22 15:07:00,
2013-06-22 11:22:00,78.6,63.0,30.25,NE,51,2.0,6.0,59,0.00,,,0.00,weatherlink.com 1.10,2013-06-22 15:22:00,
2013-06-22 11:37:00,80.3,61.0,30.24,WSW,244,4.0,6.0,52,0.00,,,0.00,weatherlink.com 1.10,2013-06-22 15:37:00,
2013-06-22 11:52:00,80.3,59.0,30.24,SSW,212,4.0,8.0,48,0.00,,,0.00,weatherlink.com 1.10,2013-06-22 15:52:00,
2013-06-22 12:07:00,80.9,60.0,30.24,SW,235,4.0,9.0,49,0.00,,,0.00,weatherlink.com 1.10,2013-06-22 16:07:00,
2013-06-22 12:22:00,81.4,60.0,30.24,WSW,257,7.0,8.0,49,0.00,,,0.00,weatherlink.com 1.10,2013-06-22 16:22:00,
2013-06-22 12:37:00,81.3,62.0,30.23,West,274,4.0,10.0,53,0.00,,,0.00,weatherlink.com 1.10,2013-06-22 16:37:00,
2013-06-22 12:52:00,81.7,62.0,30.24,WSW,249,3.0,10.0,52,0.00,,,0.00,weatherlink.com 1.10,2013-06-22 16:52:00,
2013-06-22 13:07:00,82.2,62.0,30.23,SSW,212,5.0,12.0,51,0.00,,,0.00,weatherlink.com 1.10,2013-06-22 17:07:00,
2013-06-22 13:22:00,82.5,62.0,30.22,SW,217,9.0,10.0,50,0.00,,,0.00,weatherlink.com 1.10,2013-06-22 17:22:00,
2013-06-22 13:38:00,83.2,63.0,30.22,WSW,237,4.0,8.0,51,0.00,,,0.00,weatherlink.com 1.10,2013-06-22 17:38:00,
2013-06-22 13:52:00,83.3,62.0,30.22,WSW,239,4.0,9.0,49,0.00,,,0.00,weatherlink.com 1.10,2013-06-22 17:52:00,
2013-06-22 14:07:00,83.5,62.0,30.22,WNW,301,2.0,10.0,49,0.00,,,0.00,weatherlink.com 1.10,2013-06-22 18:07:00,
2013-06-22 14:22:00,83.9,63.0,30.22,ESE,120,0.0,9.0,49,0.00,,,0.00,weatherlink.com 1.10,2013-06-22 18:22:00,
2013-06-22 14:37:00,83.4,63.0,30.22,NNW,340,4.0,7.0,51,0.00,,,0.00,weatherlink.com 1.10,2013-06-22 18:37:00,
2013-06-22 14:53:00,84.0,64.0,30.21,NW,319,3.0,6.0,51,0.00,,,0.00,weatherlink.com 1.10,2013-06-22 18:53:00,
2013-06-22 15:08:00,83.0,64.0,30.20,WNW,290,2.0,7.0,53,0.00,,,0.00,weatherlink.com 1.10,2013-06-22 19:08:00,
2013-06-22 15:23:00,83.4,64.0,30.19,NNE,23,5.0,6.0,52,0.00,,,0.00,weatherlink.com 1.10,2013-06-22 19:23:00,
2013-06-22 15:38:00,84.6,63.0,30.18,SSW,206,5.0,8.0,49,0.00,,,0.00,weatherlink.com 1.10,2013-06-22 19:38:00,
2013-06-22 15:53:00,84.8,64.0,30.18,WNW,282,5.0,8.0,49,0.00,,,0.00,weatherlink.com 1.10,2013-06-22 19:53:00,
2013-06-22 16:08:00,83.3,65.0,30.18,SSE,160,3.0,11.0,55,0.00,,,0.00,weatherlink.com 1.10,2013-06-22 20:08:00,
2013-06-22 16:23:00,81.6,66.0,30.18,SSE,162,6.0,10.0,59,0.00,,,0.00,weatherlink.com 1.10,2013-06-22 20:23:00,
2013-06-22 16:38:00,81.1,65.0,30.17,SE,144,5.0,11.0,59,0.00,,,0.00,weatherlink.com 1.10,2013-06-22 20:38:00,
2013-06-22 16:53:00,81.1,66.0,30.16,SSE,166,5.0,10.0,60,0.00,,,0.00,weatherlink.com 1.10,2013-06-22 20:53:00,
2013-06-22 17:08:00,80.6,64.0,30.16,SSE,154,6.0,9.0,58,0.00,,,0.00,weatherlink.com 1.10,2013-06-22 21:08:00,
2013-06-22 17:23:00,79.4,65.0,30.16,SE,144,4.0,11.0,61,0.00,,,0.00,weatherlink.com 1.10,2013-06-22 21:23:00,
2013-06-22 17:38:00,78.9,63.0,30.16,SSW,193,7.0,11.0,59,0.00,,,0.00,weatherlink.com 1.10,2013-06-22 21:38:00,
2013-06-22 17:53:00,78.2,62.0,30.15,South,173,7.0,11.0,58,0.00,,,0.00,weatherlink.com 1.10,2013-06-22 21:53:00,
2013-06-22 18:08:00,78.6,62.0,30.15,South,177,8.0,11.0,56,0.00,,,0.00,weatherlink.com 1.10,2013-06-22 22:08:00,
2013-06-22 18:23:00,78.0,62.0,30.15,South,171,5.0,11.0,58,0.00,,,0.00,weatherlink.com 1.10,2013-06-22 22:23:00,
2013-06-22 18:38:00,77.1,62.0,30.15,SSE,163,5.0,11.0,59,0.00,,,0.00,weatherlink.com 1.10,2013-06-22 22:38:00,
2013-06-22 18:53:00,75.8,61.0,30.14,SE,143,8.0,10.0,61,0.00,,,0.00,weatherlink.com 1.10,2013-06-22 22:53:00,
2013-06-22 19:08:00,75.3,61.0,30.14,SE,139,5.0,10.0,62,0.00,,,0.00,weatherlink.com 1.10,2013-06-22 23:08:00,
2013-06-22 19:23:00,73.8,60.0,30.14,South,173,7.0,9.0,62,0.00,,,0.00,weatherlink.com 1.10,2013-06-22 23:23:00,
2013-06-22 19:38:00,72.8,60.0,30.14,SSE,167,4.0,6.0,64,0.00,,,0.00,weatherlink.com 1.10,2013-06-22 23:38:00,
2013-06-22 19:53:00,71.6,60.0,30.14,South,183,2.0,4.0,68,0.00,,,0.00,weatherlink.com 1.10,2013-06-22 23:53:00,
2013-06-22 20:08:00,70.5,61.0,30.14,SSW,213,2.0,4.0,71,0.00,,,0.00,weatherlink.com 1.10,2013-06-23 00:08:00,
2013-06-22 20:23:00,69.4,61.0,30.15,South,175,1.0,2.0,74,0.00,,,0.00,weatherlink.com 1.10,2013-06-23 00:23:00,
2013-06-22 20:38:00,68.4,60.0,30.15,SSW,205,2.0,3.0,74,0.00,,,0.00,weatherlink.com 1.10,2013-06-23 00:38:00,
2013-06-22 20:53:00,67.5,60.0,30.16,South,169,1.0,2.0,77,0.00,,,0.00,weatherlink.com 1.10,2013-06-23 00:53:00,
2013-06-22 21:08:00,66.4,60.0,30.16,South,179,1.0,2.0,79,0.00,,,0.00,weatherlink.com 1.10,2013-06-23 01:08:00,
2013-06-22 21:23:00,65.2,59.0,30.16,South,179,0.0,1.0,81,0.00,,,0.00,weatherlink.com 1.10,2013-06-23 01:23:00,
2013-06-22 21:38:00,64.3,60.0,30.17,South,179,0.0,0.0,85,0.00,,,0.00,weatherlink.com 1.10,2013-06-23 01:38:00,
2013-06-22 21:53:00,62.6,58.0,30.17,SSE,153,0.0,1.0,85,0.00,,,0.00,weatherlink.com 1.10,2013-06-23 01:53:00,
2013-06-22 22:08:00,62.6,59.0,30.17,SSE,154,0.0,0.0,88,0.00,,,0.00,weatherlink.com 1.10,2013-06-23 02:08:00,
2013-06-22 22:23:00,62.3,59.0,30.17,SSE,153,0.0,0.0,89,0.00,,,0.00,weatherlink.com 1.10,2013-06-23 02:23:00,
2013-06-22 22:38:00,61.3,58.0,30.18,SSE,150,1.0,1.0,88,0.00,,,0.00,weatherlink.com 1.10,2013-06-23 02:38:00,
2013-06-22 22:53:00,60.4,57.0,30.18,SSE,150,0.0,1.0,88,0.00,,,0.00,weatherlink.com 1.10,2013-06-23 02:53:00,
2013-06-22 23:08:00,59.9,57.0,30.18,NNE,31,1.0,2.0,89,0.00,,,0.00,weatherlink.com 1.10,2013-06-23 03:08:00,
2013-06-22 23:23:00,60.7,57.0,30.18,NNE,20,1.0,2.0,88,0.00,,,0.00,weatherlink.com 1.10,2013-06-23 03:23:00,
2013-06-22 23:38:00,60.5,57.0,30.18,East,101,0.0,0.0,88,0.00,,,0.00,weatherlink.com 1.10,2013-06-23 03:38:00,
2013-06-22 23:53:00,60.5,57.0,30.18,SSE,168,0.0,0.0,89,0.00,,,0.00,weatherlink.com 1.10,2013-06-23 03:53:00,